sensor_id;sensor_type;location;lat;lon;timestamp;pressure;altitude;pressure_sealevel;temperature;humidity
32109;BME280;18624;50.042;8.436;2024-01-25T00:00:04;101609.94;;;8.25;100.00
32109;BME280;18624;50.042;8.436;2024-01-25T00:02:31;101614.63;;;8.28;100.00
32109;BME280;18624;50.042;8.436;2024-01-25T00:04:57;101602.91;;;8.21;100.00
32109;BME280;18624;50.042;8.436;2024-01-25T00:07:24;101561.41;;;7.94;100.00
32109;BME280;18624;50.042;8.436;2024-01-25T00:09:50;101618.13;;;8.22;100.00
32109;BME280;18624;50.042;8.436;2024-01-25T00:12:17;101609.94;;;8.22;100.00
32109;BME280;18624;50.042;8.436;2024-01-25T00:14:43;101603.25;;;8.19;100.00
32109;BME280;18624;50.042;8.436;2024-01-25T00:17:10;101594.69;;;8.17;100.00
32109;BME280;18624;50.042;8.436;2024-01-25T00:19:37;101593.13;;;8.16;100.00
32109;BME280;18624;50.042;8.436;2024-01-25T00:22:03;101589.63;;;8.16;100.00
32109;BME280;18624;50.042;8.436;2024-01-25T00:24:30;101587.63;;;8.12;100.00
32109;BME280;18624;50.042;8.436;2024-01-25T00:26:56;101597.03;;;8.15;100.00
32109;BME280;18624;50.042;8.436;2024-01-25T00:29:23;101598.19;;;8.18;100.00
32109;BME280;18624;50.042;8.436;2024-01-25T00:31:50;101606.81;;;8.20;100.00
32109;BME280;18624;50.042;8.436;2024-01-25T00:34:16;101598.19;;;8.18;100.00
32109;BME280;18624;50.042;8.436;2024-01-25T00:36:43;101595.88;;;8.23;100.00
32109;BME280;18624;50.042;8.436;2024-01-25T00:39:10;101602.94;;;8.24;100.00
32109;BME280;18624;50.042;8.436;2024-01-25T00:41:37;101600.53;;;8.19;100.00
32109;BME280;18624;50.042;8.436;2024-01-25T00:44:04;101519.09;;;7.63;100.00
32109;BME280;18624;50.042;8.436;2024-01-25T00:46:30;101543.41;;;7.85;100.00
32109;BME280;18624;50.042;8.436;2024-01-25T00:48:57;101599.38;;;8.17;100.00
32109;BME280;18624;50.042;8.436;2024-01-25T00:51:24;101600.50;;;8.12;100.00
32109;BME280;18624;50.042;8.436;2024-01-25T00:53:51;101605.22;;;8.15;100.00
32109;BME280;18624;50.042;8.436;2024-01-25T00:56:18;101606.38;;;8.14;100.00
32109;BME280;18624;50.042;8.436;2024-01-25T00:58:45;101607.91;;;8.08;100.00
32109;BME280;18624;50.042;8.436;2024-01-25T01:01:12;101606.72;;;8.09;100.00
32109;BME280;18624;50.042;8.436;2024-01-25T01:03:39;101610.63;;;8.08;100.00
32109;BME280;18624;50.042;8.436;2024-01-25T01:06:06;101595.38;;;8.00;100.00
32109;BME280;18624;50.042;8.436;2024-01-25T01:08:33;101603.59;;;8.07;100.00
32109;BME280;18624;50.042;8.436;2024-01-25T01:11:00;101605.56;;;8.06;100.00
32109;BME280;18624;50.042;8.436;2024-01-25T01:13:26;101618.00;;;8.04;100.00
32109;BME280;18624;50.042;8.436;2024-01-25T01:15:53;101616.06;;;8.04;100.00
32109;BME280;18624;50.042;8.436;2024-01-25T01:18:19;101622.69;;;8.03;100.00
32109;BME280;18624;50.042;8.436;2024-01-25T01:20:46;101539.28;;;7.51;100.00
32109;BME280;18624;50.042;8.436;2024-01-25T01:23:12;101627.00;;;8.04;100.00
32109;BME280;18624;50.042;8.436;2024-01-25T01:25:39;101635.56;;;8.03;100.00
32109;BME280;18624;50.042;8.436;2024-01-25T01:28:05;101625.44;;;8.03;100.00
32109;BME280;18624;50.042;8.436;2024-01-25T01:30:32;101621.91;;;8.03;100.00
32109;BME280;18624;50.042;8.436;2024-01-25T01:32:58;101626.97;;;8.01;100.00
32109;BME280;18624;50.042;8.436;2024-01-25T01:35:25;101625.78;;;7.98;100.00
32109;BME280;18624;50.042;8.436;2024-01-25T01:37:51;101627.75;;;7.98;100.00
32109;BME280;18624;50.042;8.436;2024-01-25T01:40:18;101627.72;;;7.94;100.00
32109;BME280;18624;50.042;8.436;2024-01-25T01:42:45;101628.09;;;7.93;100.00
32109;BME280;18624;50.042;8.436;2024-01-25T01:45:11;101624.13;;;7.86;100.00
32109;BME280;18624;50.042;8.436;2024-01-25T01:47:39;101623.31;;;7.82;100.00
32109;BME280;18624;50.042;8.436;2024-01-25T01:50:06;101625.28;;;7.82;100.00
32109;BME280;18624;50.042;8.436;2024-01-25T01:52:33;101633.09;;;7.83;100.00
32109;BME280;18624;50.042;8.436;2024-01-25T01:55:00;101633.06;;;7.80;100.00
32109;BME280;18624;50.042;8.436;2024-01-25T01:57:27;101633.81;;;7.77;100.00
32109;BME280;18624;50.042;8.436;2024-01-25T01:59:55;101635.81;;;7.80;100.00
32109;BME280;18624;50.042;8.436;2024-01-25T02:02:23;101632.66;;;7.78;100.00
32109;BME280;18624;50.042;8.436;2024-01-25T02:04:50;101643.97;;;7.76;100.00
32109;BME280;18624;50.042;8.436;2024-01-25T02:07:17;101638.47;;;7.73;100.00
32109;BME280;18624;50.042;8.436;2024-01-25T02:09:43;101638.84;;;7.71;100.00
32109;BME280;18624;50.042;8.436;2024-01-25T02:12:10;101596.88;;;7.42;100.00
32109;BME280;18624;50.042;8.436;2024-01-25T02:14:36;101618.47;;;7.58;100.00
32109;BME280;18624;50.042;8.436;2024-01-25T02:17:03;101641.16;;;7.66;100.00
32109;BME280;18624;50.042;8.436;2024-01-25T02:19:29;101634.09;;;7.65;100.00
32109;BME280;18624;50.042;8.436;2024-01-25T02:21:57;101627.06;;;7.60;100.00
32109;BME280;18624;50.042;8.436;2024-01-25T02:24:25;101632.03;;;7.51;100.00
32109;BME280;18624;50.042;8.436;2024-01-25T02:26:51;101551.72;;;7.00;100.00
32109;BME280;18624;50.042;8.436;2024-01-25T02:29:18;101627.78;;;7.53;100.00
32109;BME280;18624;50.042;8.436;2024-01-25T02:31:44;101625.03;;;7.50;100.00
32109;BME280;18624;50.042;8.436;2024-01-25T02:34:11;101639.78;;;7.45;100.00
32109;BME280;18624;50.042;8.436;2024-01-25T02:36:38;101632.78;;;7.44;100.00
32109;BME280;18624;50.042;8.436;2024-01-25T02:39:04;101632.34;;;7.39;100.00
32109;BME280;18624;50.042;8.436;2024-01-25T02:41:31;101628.81;;;7.38;100.00
32109;BME280;18624;50.042;8.436;2024-01-25T02:43:59;101632.34;;;7.42;100.00
32109;BME280;18624;50.042;8.436;2024-01-25T02:46:26;101618.72;;;7.39;100.00
32109;BME280;18624;50.042;8.436;2024-01-25T02:48:53;101620.22;;;7.36;100.00
32109;BME280;18624;50.042;8.436;2024-01-25T02:51:19;101625.69;;;7.36;100.00
32109;BME280;18624;50.042;8.436;2024-01-25T02:53:46;101622.19;;;7.35;100.00
32109;BME280;18624;50.042;8.436;2024-01-25T02:56:12;101625.69;;;7.36;100.00
32109;BME280;18624;50.042;8.436;2024-01-25T02:58:39;101631.91;;;7.36;100.00
32109;BME280;18624;50.042;8.436;2024-01-25T03:01:05;101633.81;;;7.32;100.00
32109;BME280;18624;50.042;8.436;2024-01-25T03:03:32;101629.56;;;7.35;100.00
32109;BME280;18624;50.042;8.436;2024-01-25T03:05:58;101643.22;;;7.35;100.00
32109;BME280;18624;50.042;8.436;2024-01-25T03:08:25;101632.22;;;7.28;100.00
32109;BME280;18624;50.042;8.436;2024-01-25T03:10:51;101635.03;;;7.35;100.00
32109;BME280;18624;50.042;8.436;2024-01-25T03:13:18;101636.19;;;7.34;100.00
32109;BME280;18624;50.042;8.436;2024-01-25T03:15:44;101584.78;;;6.95;100.00
32109;BME280;18624;50.042;8.436;2024-01-25T03:18:11;101648.66;;;7.35;100.00
32109;BME280;18624;50.042;8.436;2024-01-25T03:20:37;101653.00;;;7.40;100.00
32109;BME280;18624;50.042;8.436;2024-01-25T03:23:04;101652.63;;;7.41;100.00
32109;BME280;18624;50.042;8.436;2024-01-25T03:25:30;101659.63;;;7.42;100.00
32109;BME280;18624;50.042;8.436;2024-01-25T03:27:58;101660.06;;;7.44;100.00
32109;BME280;18624;50.042;8.436;2024-01-25T03:30:24;101649.88;;;7.41;100.00
32109;BME280;18624;50.042;8.436;2024-01-25T03:32:51;101656.94;;;7.46;100.00
32109;BME280;18624;50.042;8.436;2024-01-25T03:35:17;101653.44;;;7.45;100.00
32109;BME280;18624;50.042;8.436;2024-01-25T03:37:44;101662.81;;;7.48;100.00
32109;BME280;18624;50.042;8.436;2024-01-25T03:40:10;101667.13;;;7.49;100.00
32109;BME280;18624;50.042;8.436;2024-01-25T03:42:37;101667.16;;;7.52;100.00
32109;BME280;18624;50.042;8.436;2024-01-25T03:45:04;101679.97;;;7.52;100.00
32109;BME280;18624;50.042;8.436;2024-01-25T03:47:30;101679.97;;;7.52;100.00
32109;BME280;18624;50.042;8.436;2024-01-25T03:49:57;101657.69;;;7.43;100.00
32109;BME280;18624;50.042;8.436;2024-01-25T03:52:23;101665.56;;;7.48;100.00
32109;BME280;18624;50.042;8.436;2024-01-25T03:54:50;101680.81;;;7.56;100.00
32109;BME280;18624;50.042;8.436;2024-01-25T03:57:17;101688.63;;;7.57;100.00
32109;BME280;18624;50.042;8.436;2024-01-25T03:59:43;101688.63;;;7.57;100.00
32109;BME280;18624;50.042;8.436;2024-01-25T04:02:10;101694.88;;;7.58;100.00
32109;BME280;18624;50.042;8.436;2024-01-25T04:04:37;101698.38;;;7.58;100.00
32109;BME280;18624;50.042;8.436;2024-01-25T04:07:04;101707.72;;;7.57;100.00
32109;BME280;18624;50.042;8.436;2024-01-25T04:09:30;101697.94;;;7.56;100.00
32109;BME280;18624;50.042;8.436;2024-01-25T04:11:57;101652.69;;;7.07;100.00
32109;BME280;18624;50.042;8.436;2024-01-25T04:14:23;101695.59;;;7.55;100.00
32109;BME280;18624;50.042;8.436;2024-01-25T04:16:50;101694.84;;;7.54;100.00
32109;BME280;18624;50.042;8.436;2024-01-25T04:19:16;101694.44;;;7.52;100.00
32109;BME280;18624;50.042;8.436;2024-01-25T04:21:43;101695.56;;;7.51;100.00
32109;BME280;18624;50.042;8.436;2024-01-25T04:24:09;101701.81;;;7.48;100.00
32109;BME280;18624;50.042;8.436;2024-01-25T04:26:36;101700.59;;;7.46;100.00
32109;BME280;18624;50.042;8.436;2024-01-25T04:29:02;101702.13;;;7.43;100.00
32109;BME280;18624;50.042;8.436;2024-01-25T04:31:29;101706.38;;;7.41;100.00
32109;BME280;18624;50.042;8.436;2024-01-25T04:33:56;101702.44;;;7.34;100.00
32109;BME280;18624;50.042;8.436;2024-01-25T04:36:23;101706.31;;;7.33;100.00
32109;BME280;18624;50.042;8.436;2024-01-25T04:38:49;101701.97;;;7.29;100.00
32109;BME280;18624;50.042;8.436;2024-01-25T04:41:16;101704.69;;;7.29;100.00
32109;BME280;18624;50.042;8.436;2024-01-25T04:43:42;101699.25;;;7.29;100.00
32109;BME280;18624;50.042;8.436;2024-01-25T04:46:09;101718.72;;;7.27;100.00
32109;BME280;18624;50.042;8.436;2024-01-25T04:48:35;101726.50;;;7.25;100.00
32109;BME280;18624;50.042;8.436;2024-01-25T04:51:03;101729.59;;;7.24;100.00
32109;BME280;18624;50.042;8.436;2024-01-25T04:53:30;101736.56;;;7.21;100.00
32109;BME280;18624;50.042;8.436;2024-01-25T04:55:56;101744.72;;;7.18;100.00
32109;BME280;18624;50.042;8.436;2024-01-25T04:58:23;101735.53;;;6.99;100.00
32109;BME280;18624;50.042;8.436;2024-01-25T05:00:49;101759.34;;;7.06;100.00
32109;BME280;18624;50.042;8.436;2024-01-25T05:03:19;101766.41;;;7.07;100.00
32109;BME280;18624;50.042;8.436;2024-01-25T05:05:46;101768.75;;;7.08;100.00
32109;BME280;18624;50.042;8.436;2024-01-25T05:08:13;101770.31;;;7.09;100.00
32109;BME280;18624;50.042;8.436;2024-01-25T05:10:40;101766.41;;;7.07;100.00
32109;BME280;18624;50.042;8.436;2024-01-25T05:13:07;101769.91;;;7.07;100.00
32109;BME280;18624;50.042;8.436;2024-01-25T05:15:33;101767.53;;;7.06;100.00
32109;BME280;18624;50.042;8.436;2024-01-25T05:18:01;101770.25;;;7.06;100.00
32109;BME280;18624;50.042;8.436;2024-01-25T05:20:28;101778.09;;;7.07;100.00
32109;BME280;18624;50.042;8.436;2024-01-25T05:23:03;101773.75;;;7.03;100.00
32109;BME280;18624;50.042;8.436;2024-01-25T05:25:30;101782.72;;;7.03;100.00
32109;BME280;18624;50.042;8.436;2024-01-25T05:27:57;101777.66;;;7.05;100.00
32109;BME280;18624;50.042;8.436;2024-01-25T05:30:24;101771.03;;;7.06;100.00
32109;BME280;18624;50.042;8.436;2024-01-25T05:32:51;101767.22;;;7.11;100.00
32109;BME280;18624;50.042;8.436;2024-01-25T05:35:20;101770.38;;;7.13;100.00
32109;BME280;18624;50.042;8.436;2024-01-25T05:37:46;101751.28;;;7.13;100.00
32109;BME280;18624;50.042;8.436;2024-01-25T05:40:13;101764.19;;;7.16;100.00
32109;BME280;18624;50.042;8.436;2024-01-25T05:42:39;101758.28;;;7.14;100.00
32109;BME280;18624;50.042;8.436;2024-01-25T05:45:07;101768.41;;;7.14;100.00
32109;BME280;18624;50.042;8.436;2024-01-25T05:47:35;101771.53;;;7.12;100.00
32109;BME280;18624;50.042;8.436;2024-01-25T05:50:02;101775.78;;;7.09;100.00
32109;BME280;18624;50.042;8.436;2024-01-25T05:52:28;101777.00;;;7.16;100.00
32109;BME280;18624;50.042;8.436;2024-01-25T05:54:55;101766.84;;;7.13;100.00
32109;BME280;18624;50.042;8.436;2024-01-25T05:57:22;101780.94;;;7.18;100.00
32109;BME280;18624;50.042;8.436;2024-01-25T05:59:48;101773.94;;;7.17;100.00
32109;BME280;18624;50.042;8.436;2024-01-25T06:02:14;101783.28;;;7.16;100.00
32109;BME280;18624;50.042;8.436;2024-01-25T06:04:42;101769.59;;;7.13;100.00
32109;BME280;18624;50.042;8.436;2024-01-25T06:07:08;101786.00;;;7.16;100.00
32109;BME280;18624;50.042;8.436;2024-01-25T06:09:35;101792.97;;;7.14;100.00
32109;BME280;18624;50.042;8.436;2024-01-25T06:12:01;101794.06;;;7.09;100.00
32109;BME280;18624;50.042;8.436;2024-01-25T06:14:30;101806.13;;;7.08;100.00
32109;BME280;18624;50.042;8.436;2024-01-25T06:16:57;101800.31;;;7.09;100.00
32109;BME280;18624;50.042;8.436;2024-01-25T06:19:23;101793.69;;;7.10;100.00
32109;BME280;18624;50.042;8.436;2024-01-25T06:21:50;101717.78;;;6.52;100.00
32109;BME280;18624;50.042;8.436;2024-01-25T06:24:16;101802.19;;;7.05;100.00
32109;BME280;18624;50.042;8.436;2024-01-25T06:26:43;101797.53;;;7.06;100.00
32109;BME280;18624;50.042;8.436;2024-01-25T06:29:09;101794.44;;;7.07;100.00
32109;BME280;18624;50.042;8.436;2024-01-25T06:31:42;101783.53;;;7.07;100.00
32109;BME280;18624;50.042;8.436;2024-01-25T06:34:10;101790.50;;;7.05;100.00
32109;BME280;18624;50.042;8.436;2024-01-25T06:36:37;101793.28;;;7.08;100.00
32109;BME280;18624;50.042;8.436;2024-01-25T06:39:04;101787.78;;;7.05;100.00
32109;BME280;18624;50.042;8.436;2024-01-25T06:41:30;101750.75;;;6.74;100.00
32109;BME280;18624;50.042;8.436;2024-01-25T06:43:57;101798.22;;;6.99;100.00
32109;BME280;18624;50.042;8.436;2024-01-25T06:46:23;101787.69;;;6.98;100.00
32109;BME280;18624;50.042;8.436;2024-01-25T06:48:50;101781.72;;;6.89;100.00
32109;BME280;18624;50.042;8.436;2024-01-25T06:51:17;101797.72;;;6.90;100.00
32109;BME280;18624;50.042;8.436;2024-01-25T06:53:43;101738.78;;;6.52;100.00
32109;BME280;18624;50.042;8.436;2024-01-25T06:56:10;101793.72;;;6.84;100.00
32109;BME280;18624;50.042;8.436;2024-01-25T06:58:37;101803.00;;;6.79;100.00
32109;BME280;18624;50.042;8.436;2024-01-25T07:01:04;101797.88;;;6.74;100.00
32109;BME280;18624;50.042;8.436;2024-01-25T07:03:34;101797.47;;;6.72;100.00
32109;BME280;18624;50.042;8.436;2024-01-25T07:06:01;101806.38;;;6.69;100.00
32109;BME280;18624;50.042;8.436;2024-01-25T07:08:28;101809.41;;;6.64;100.00
32109;BME280;18624;50.042;8.436;2024-01-25T07:10:55;101809.34;;;6.60;100.00
32109;BME280;18624;50.042;8.436;2024-01-25T07:13:22;101766.84;;;6.29;100.00
32109;BME280;18624;50.042;8.436;2024-01-25T07:15:49;101824.13;;;6.59;100.00
32109;BME280;18624;50.042;8.436;2024-01-25T07:18:16;101817.91;;;6.59;100.00
32109;BME280;18624;50.042;8.436;2024-01-25T07:20:42;101813.59;;;6.58;100.00
32109;BME280;18624;50.042;8.436;2024-01-25T07:23:09;101819.41;;;6.56;100.00
32109;BME280;18624;50.042;8.436;2024-01-25T07:25:35;101806.53;;;6.53;100.00
32109;BME280;18624;50.042;8.436;2024-01-25T07:28:02;101802.19;;;6.49;100.00
32109;BME280;18624;50.042;8.436;2024-01-25T07:30:28;101806.41;;;6.46;100.00
32109;BME280;18624;50.042;8.436;2024-01-25T07:32:55;101805.19;;;6.44;100.00
32109;BME280;18624;50.042;8.436;2024-01-25T07:35:21;101807.13;;;6.43;100.00
32109;BME280;18624;50.042;8.436;2024-01-25T07:37:50;101820.75;;;6.43;100.00
32109;BME280;18624;50.042;8.436;2024-01-25T07:40:16;101812.97;;;6.42;100.00
32109;BME280;18624;50.042;8.436;2024-01-25T07:42:43;101816.84;;;6.41;100.00
32109;BME280;18624;50.042;8.436;2024-01-25T07:45:09;101813.25;;;6.37;100.00
32109;BME280;18624;50.042;8.436;2024-01-25T07:47:36;101821.00;;;6.34;100.00
32109;BME280;18624;50.042;8.436;2024-01-25T07:50:02;101822.94;;;6.34;100.00
32109;BME280;18624;50.042;8.436;2024-01-25T07:52:29;101816.00;;;6.37;100.00
32109;BME280;18624;50.042;8.436;2024-01-25T07:54:56;101815.63;;;6.38;100.00
32109;BME280;18624;50.042;8.436;2024-01-25T07:57:23;101814.84;;;6.38;100.00
32109;BME280;18624;50.042;8.436;2024-01-25T07:59:49;101828.50;;;6.41;100.00
32109;BME280;18624;50.042;8.436;2024-01-25T08:02:15;101838.69;;;6.44;100.00
32109;BME280;18624;50.042;8.436;2024-01-25T08:04:46;101842.19;;;6.45;100.00
32109;BME280;18624;50.042;8.436;2024-01-25T08:07:13;101846.97;;;6.51;100.00
32109;BME280;18624;50.042;8.436;2024-01-25T08:09:40;101861.06;;;6.57;100.00
32109;BME280;18624;50.042;8.436;2024-01-25T08:12:06;101868.03;;;6.54;100.00
32109;BME280;18624;50.042;8.436;2024-01-25T08:14:33;101870.31;;;6.52;100.00
32109;BME280;18624;50.042;8.436;2024-01-25T08:16:59;101855.13;;;6.51;100.00
32109;BME280;18624;50.042;8.436;2024-01-25T08:19:26;101855.06;;;6.48;100.00
32109;BME280;18624;50.042;8.436;2024-01-25T08:21:53;101848.53;;;6.52;100.00
32109;BME280;18624;50.042;8.436;2024-01-25T08:24:19;101851.38;;;6.59;100.00
32109;BME280;18624;50.042;8.436;2024-01-25T08:26:46;101846.47;;;6.69;100.00
32109;BME280;18624;50.042;8.436;2024-01-25T08:29:12;101848.50;;;6.75;100.00
32109;BME280;18624;50.042;8.436;2024-01-25T08:31:39;101850.16;;;6.80;100.00
32109;BME280;18624;50.042;8.436;2024-01-25T08:34:05;101852.50;;;6.81;100.00
32109;BME280;18624;50.042;8.436;2024-01-25T08:36:33;101870.03;;;6.84;100.00
32109;BME280;18624;50.042;8.436;2024-01-25T08:38:59;101865.03;;;6.86;100.00
32109;BME280;18624;50.042;8.436;2024-01-25T08:41:26;101871.66;;;6.89;100.00
32109;BME280;18624;50.042;8.436;2024-01-25T08:43:52;101874.75;;;6.87;100.00
32109;BME280;18624;50.042;8.436;2024-01-25T08:46:19;101876.81;;;6.94;100.00
32109;BME280;18624;50.042;8.436;2024-01-25T08:48:46;101876.13;;;7.00;100.00
32109;BME280;18624;50.042;8.436;2024-01-25T08:51:12;101870.78;;;7.07;100.00
32109;BME280;18624;50.042;8.436;2024-01-25T08:53:39;101873.97;;;7.13;100.00
32109;BME280;18624;50.042;8.436;2024-01-25T08:56:06;101861.91;;;7.14;100.00
32109;BME280;18624;50.042;8.436;2024-01-25T08:58:32;101876.06;;;7.23;100.00
32109;BME280;18624;50.042;8.436;2024-01-25T09:00:59;101870.28;;;7.28;100.00
32109;BME280;18624;50.042;8.436;2024-01-25T09:03:26;101873.84;;;7.32;100.00
32109;BME280;18624;50.042;8.436;2024-01-25T09:05:52;101883.31;;;7.39;100.00
32109;BME280;18624;50.042;8.436;2024-01-25T09:08:19;101809.03;;;6.92;100.00
32109;BME280;18624;50.042;8.436;2024-01-25T09:10:46;101883.75;;;7.44;100.00
32109;BME280;18624;50.042;8.436;2024-01-25T09:13:13;101883.81;;;7.51;100.00
32109;BME280;18624;50.042;8.436;2024-01-25T09:15:39;101880.78;;;7.56;100.00
32109;BME280;18624;50.042;8.436;2024-01-25T09:18:06;101869.56;;;7.61;100.00
32109;BME280;18624;50.042;8.436;2024-01-25T09:20:33;101777.72;;;7.09;100.00
32109;BME280;18624;50.042;8.436;2024-01-25T09:22:59;101875.13;;;7.72;100.00
32109;BME280;18624;50.042;8.436;2024-01-25T09:25:26;101867.34;;;7.74;100.00
32109;BME280;18624;50.042;8.436;2024-01-25T09:27:52;101867.38;;;7.78;100.00
32109;BME280;18624;50.042;8.436;2024-01-25T09:30:22;101886.16;;;7.83;100.00
32109;BME280;18624;50.042;8.436;2024-01-25T09:32:49;101884.63;;;7.85;100.00
32109;BME280;18624;50.042;8.436;2024-01-25T09:35:16;101890.50;;;7.87;100.00
32109;BME280;18624;50.042;8.436;2024-01-25T09:37:43;101886.25;;;7.90;100.00
32109;BME280;18624;50.042;8.436;2024-01-25T09:40:10;101894.06;;;7.92;100.00
32109;BME280;18624;50.042;8.436;2024-01-25T09:42:38;101883.91;;;7.92;100.00
32109;BME280;18624;50.042;8.436;2024-01-25T09:45:06;101872.97;;;7.89;100.00
32109;BME280;18624;50.042;8.436;2024-01-25T09:47:34;101882.41;;;7.95;100.00
32109;BME280;18624;50.042;8.436;2024-01-25T09:50:01;101886.69;;;7.96;100.00
32109;BME280;18624;50.042;8.436;2024-01-25T09:52:28;101887.91;;;7.98;100.00
32109;BME280;18624;50.042;8.436;2024-01-25T09:54:57;101891.03;;;8.00;100.00
32109;BME280;18624;50.042;8.436;2024-01-25T09:57:24;101888.72;;;8.02;100.00
32109;BME280;18624;50.042;8.436;2024-01-25T09:59:54;101890.34;;;8.07;100.00
32109;BME280;18624;50.042;8.436;2024-01-25T10:02:21;101881.66;;;7.98;100.00
32109;BME280;18624;50.042;8.436;2024-01-25T10:04:49;101904.38;;;8.09;100.00
32109;BME280;18624;50.042;8.436;2024-01-25T10:07:38;101903.66;;;8.12;100.00
32109;BME280;18624;50.042;8.436;2024-01-25T10:10:06;101905.22;;;8.13;100.00
32109;BME280;18624;50.042;8.436;2024-01-25T10:12:33;101887.97;;;8.05;100.00
32109;BME280;18624;50.042;8.436;2024-01-25T10:14:59;101889.25;;;8.15;100.00
32109;BME280;18624;50.042;8.436;2024-01-25T10:17:28;101881.06;;;8.15;100.00
32109;BME280;18624;50.042;8.436;2024-01-25T10:20:14;101883.03;;;8.18;100.00
32109;BME280;18624;50.042;8.436;2024-01-25T10:22:43;101881.41;;;8.13;100.00
32109;BME280;18624;50.042;8.436;2024-01-25T10:25:13;101884.19;;;8.17;100.00
32109;BME280;18624;50.042;8.436;2024-01-25T10:27:41;101885.41;;;8.20;100.00
32109;BME280;18624;50.042;8.436;2024-01-25T10:30:09;101874.47;;;8.20;100.00
32109;BME280;18624;50.042;8.436;2024-01-25T10:32:36;101872.19;;;8.25;100.00
32109;BME280;18624;50.042;8.436;2024-01-25T10:35:04;101870.63;;;8.28;100.00
32109;BME280;18624;50.042;8.436;2024-01-25T10:37:32;101891.34;;;8.32;100.00
32109;BME280;18624;50.042;8.436;2024-01-25T10:40:00;101899.59;;;8.36;100.00
32109;BME280;18624;50.042;8.436;2024-01-25T10:42:26;101887.94;;;8.39;100.00
32109;BME280;18624;50.042;8.436;2024-01-25T10:44:53;101893.03;;;8.41;100.00
32109;BME280;18624;50.042;8.436;2024-01-25T10:47:20;101907.13;;;8.46;100.00
32109;BME280;18624;50.042;8.436;2024-01-25T10:49:47;101907.13;;;8.46;100.00
32109;BME280;18624;50.042;8.436;2024-01-25T10:52:14;101907.94;;;8.47;100.00
32109;BME280;18624;50.042;8.436;2024-01-25T10:54:41;101901.66;;;8.46;100.00
32109;BME280;18624;50.042;8.436;2024-01-25T10:57:08;101888.72;;;8.40;100.00
32109;BME280;18624;50.042;8.436;2024-01-25T10:59:35;101887.28;;;8.53;100.00
32109;BME280;18624;50.042;8.436;2024-01-25T11:02:01;101881.44;;;8.54;100.00
32109;BME280;18624;50.042;8.436;2024-01-25T11:04:29;101875.97;;;8.54;100.00
32109;BME280;18624;50.042;8.436;2024-01-25T11:07:07;101881.44;;;8.54;100.00
32109;BME280;18624;50.042;8.436;2024-01-25T11:09:38;101885.72;;;8.55;100.00
32109;BME280;18624;50.042;8.436;2024-01-25T11:12:11;101870.47;;;8.47;100.00
32109;BME280;18624;50.042;8.436;2024-01-25T11:14:39;101865.75;;;8.44;100.00
32109;BME280;18624;50.042;8.436;2024-01-25T11:17:19;101876.78;;;8.58;100.00
32109;BME280;18624;50.042;8.436;2024-01-25T11:19:48;101866.16;;;8.50;100.00
32109;BME280;18624;50.042;8.436;2024-01-25T11:22:15;101841.44;;;8.35;100.00
32109;BME280;18624;50.042;8.436;2024-01-25T11:24:41;101888.16;;;8.64;100.00
32109;BME280;18624;50.042;8.436;2024-01-25T11:27:12;101875.28;;;8.65;100.00
32109;BME280;18624;50.042;8.436;2024-01-25T11:29:40;101862.75;;;8.63;100.00
32109;BME280;18624;50.042;8.436;2024-01-25T11:32:11;101864.34;;;8.65;100.00
32109;BME280;18624;50.042;8.436;2024-01-25T11:34:38;101863.56;;;8.68;100.00
32109;BME280;18624;50.042;8.436;2024-01-25T11:37:05;101857.75;;;8.69;100.00
32109;BME280;18624;50.042;8.436;2024-01-25T11:39:31;101858.53;;;8.70;100.00
32109;BME280;18624;50.042;8.436;2024-01-25T11:41:58;101858.16;;;8.71;100.00
32109;BME280;18624;50.042;8.436;2024-01-25T11:44:25;101855.81;;;8.73;100.00
32109;BME280;18624;50.042;8.436;2024-01-25T11:46:54;101852.72;;;8.75;100.00
32109;BME280;18624;50.042;8.436;2024-01-25T11:49:23;101842.94;;;8.74;100.00
32109;BME280;18624;50.042;8.436;2024-01-25T11:51:50;101852.34;;;8.80;100.00
32109;BME280;18624;50.042;8.436;2024-01-25T11:54:17;101845.72;;;8.81;100.00
32109;BME280;18624;50.042;8.436;2024-01-25T11:56:44;101837.94;;;8.83;100.00
32109;BME280;18624;50.042;8.436;2024-01-25T11:59:11;101832.81;;;8.81;100.00
32109;BME280;18624;50.042;8.436;2024-01-25T12:01:39;101833.25;;;8.83;100.00
32109;BME280;18624;50.042;8.436;2024-01-25T12:04:07;101745.75;;;8.28;100.00
32109;BME280;18624;50.042;8.436;2024-01-25T12:06:34;101826.22;;;8.86;100.00
32109;BME280;18624;50.042;8.436;2024-01-25T12:09:11;101821.53;;;8.86;100.00
32109;BME280;18624;50.042;8.436;2024-01-25T12:11:40;101822.72;;;8.89;100.00
32109;BME280;18624;50.042;8.436;2024-01-25T12:14:09;101816.09;;;8.90;100.00
32109;BME280;18624;50.042;8.436;2024-01-25T12:16:35;101809.44;;;8.91;100.00
32109;BME280;18624;50.042;8.436;2024-01-25T12:19:04;101797.34;;;8.92;100.00
32109;BME280;18624;50.042;8.436;2024-01-25T12:21:33;101798.13;;;8.93;100.00
32109;BME280;18624;50.042;8.436;2024-01-25T12:26:55;101782.94;;;8.99;100.00
32109;BME280;18624;50.042;8.436;2024-01-25T12:29:22;101788.41;;;9.02;100.00
32109;BME280;18624;50.042;8.436;2024-01-25T12:31:49;101789.97;;;9.03;100.00
32109;BME280;18624;50.042;8.436;2024-01-25T12:34:16;101777.09;;;9.04;100.00
32109;BME280;18624;50.042;8.436;2024-01-25T12:36:43;101786.09;;;9.08;100.00
32109;BME280;18624;50.042;8.436;2024-01-25T12:39:10;101778.66;;;9.08;100.00
32109;BME280;18624;50.042;8.436;2024-01-25T12:41:37;101753.97;;;8.91;100.00
32109;BME280;18624;50.042;8.436;2024-01-25T12:44:04;101775.56;;;9.10;100.00
32109;BME280;18624;50.042;8.436;2024-01-25T12:46:30;101700.69;;;8.59;100.00
32109;BME280;18624;50.042;8.436;2024-01-25T12:49:01;101778.69;;;9.12;99.10
32109;BME280;18624;50.042;8.436;2024-01-25T12:51:30;101769.31;;;9.13;97.16